Time;durP1;ratioP1;P1;durP2;ratioP2;P2;SDS_P1;SDS_P2;PMS_P1;PMS_P2;Temp;Humidity;BMP_temperature;BMP_pressure;BME280_temperature;BME280_humidity;BME280_pressure;Samples;Min_cycle;Max_cycle;Signal;HPM_P1;HPM_P2
2022/05/19 00:02:10;;;;;;;;;14.25;10.00;;;;;26.73;39.33;101027.16;4962580;28;45236;-58
2022/05/19 00:04:36;;;;;;;;;9.00;9.00;;;;;26.69;39.75;101034.63;4962690;28;45414;-58
2022/05/19 00:07:02;;;;;;;;;11.50;11.25;;;;;26.68;39.85;101038.28;4960491;28;45413;-58
2022/05/19 00:09:28;;;;;;;;;12.25;11.75;;;;;26.64;39.38;101036.81;4962588;28;45310;-58
2022/05/19 00:11:55;;;;;;;;;9.50;9.50;;;;;26.63;39.27;101040.50;4971849;28;45306;-58
2022/05/19 00:14:21;;;;;;;;;14.00;12.00;;;;;26.60;39.99;101052.38;4951040;28;46255;-58
2022/05/19 00:16:47;;;;;;;;;12.00;9.50;;;;;26.57;40.05;101044.50;4942374;28;45284;-58
2022/05/19 00:19:14;;;;;;;;;12.25;11.50;;;;;26.53;39.66;101045.72;4945187;28;45488;-57
2022/05/19 00:21:40;;;;;;;;;12.50;10.75;;;;;26.53;39.41;101043.03;4962395;28;45235;-59
2022/05/19 00:24:06;;;;;;;;;10.25;8.25;;;;;26.52;39.71;101049.41;4962018;28;45321;-58
2022/05/19 00:26:31;;;;;;;;;11.50;9.00;;;;;26.51;40.01;101044.13;4962069;28;45382;-58
2022/05/19 00:28:57;;;;;;;;;11.50;11.50;;;;;26.48;40.05;101047.94;4962689;28;45345;-58
2022/05/19 00:31:22;;;;;;;;;10.75;10.75;;;;;26.46;39.78;101049.03;4962214;28;45335;-57
2022/05/19 00:33:48;;;;;;;;;12.75;11.25;;;;;26.44;40.26;101046.44;4962271;28;45371;-58
2022/05/19 00:36:18;;;;;;;;;12.75;11.50;;;;;26.40;40.21;101053.91;4944635;28;45255;-58
2022/05/19 00:38:44;;;;;;;;;13.25;10.75;;;;;26.38;40.75;101055.00;4962395;28;45397;-58
2022/05/19 00:41:10;;;;;;;;;12.00;12.00;;;;;26.34;40.96;101050.81;4961470;28;45556;-57
2022/05/19 00:43:40;;;;;;;;;10.50;10.25;;;;;26.31;40.91;101042.97;4962113;28;45354;-57
2022/05/19 00:46:05;;;;;;;;;12.00;8.25;;;;;26.31;40.41;101042.97;4961819;28;45339;-57
2022/05/19 00:48:52;;;;;;;;;13.50;10.25;;;;;26.28;40.26;101036.81;4962132;28;45541;-58
2022/05/19 00:51:24;;;;;;;;;18.25;14.75;;;;;26.26;40.45;101028.03;4961983;28;45228;-57
2022/05/19 00:53:54;;;;;;;;;11.75;11.75;;;;;26.25;40.99;101025.44;4961601;28;45525;-57
2022/05/19 00:56:25;;;;;;;;;14.00;14.00;;;;;26.23;41.01;101019.31;4961826;28;45311;-58
2022/05/19 00:59:14;;;;;;;;;14.25;12.00;;;;;26.21;40.49;101018.56;4961819;28;45376;-57
2022/05/19 01:01:42;;;;;;;;;13.00;12.75;;;;;26.19;40.66;101016.00;4961900;28;45224;-58
2022/05/19 01:04:24;;;;;;;;;12.00;12.00;;;;;26.19;40.57;101017.81;4961733;28;45553;-57
2022/05/19 01:06:55;;;;;;;;;14.50;13.25;;;;;26.17;41.29;101012.53;4961626;28;45220;-57
2022/05/19 01:09:20;;;;;;;;;13.50;11.00;;;;;26.17;40.88;101009.84;4944468;28;45283;-57
2022/05/19 01:11:51;;;;;;;;;14.75;11.75;;;;;26.17;41.21;101011.69;4961482;28;45314;-57
2022/05/19 01:14:17;;;;;;;;;11.00;11.00;;;;;26.16;40.70;101004.59;4950692;28;45493;-57
2022/05/19 01:16:43;;;;;;;;;13.00;12.00;;;;;26.12;41.17;100995.88;4958503;28;45492;-58
2022/05/19 01:19:26;;;;;;;;;12.50;12.50;;;;;26.13;41.52;101003.00;4961773;28;45307;-58
2022/05/19 01:21:57;;;;;;;;;12.00;12.00;;;;;26.12;41.23;100993.19;4961166;28;45309;-58
2022/05/19 01:24:34;;;;;;;;;13.00;13.00;;;;;26.10;40.95;100989.75;4961276;28;45344;-57
2022/05/19 01:26:59;;;;;;;;;11.50;11.50;;;;;26.13;41.25;100992.22;4961327;28;45179;-57
2022/05/19 01:29:28;;;;;;;;;13.75;12.75;;;;;26.12;40.88;100987.81;4961538;28;45280;-57
2022/05/19 01:32:00;;;;;;;;;14.00;13.25;;;;;26.12;41.00;100993.19;4961488;28;45513;-57
2022/05/19 01:34:30;;;;;;;;;12.75;11.00;;;;;26.11;40.93;100994.16;4961139;28;46237;-57
2022/05/19 01:36:56;;;;;;;;;14.00;12.75;;;;;26.12;41.54;100995.88;4943826;28;45876;-58
2022/05/19 01:39:25;;;;;;;;;14.00;12.50;;;;;26.08;41.12;100986.34;4961065;28;45243;-58
2022/05/19 01:42:17;;;;;;;;;12.25;12.25;;;;;26.11;41.28;100991.47;4961398;28;45240;-57
2022/05/19 01:44:58;;;;;;;;;13.25;12.00;;;;;26.08;41.88;100984.50;4961016;28;45302;-58
2022/05/19 01:48:08;;;;;;;;;11.75;11.25;;;;;26.09;41.84;100982.66;4960937;28;45352;-58
2022/05/19 01:51:29;;;;;;;;;14.75;13.25;;;;;26.07;41.67;100973.84;4917010;28;45379;-57
2022/05/19 01:54:14;;;;;;;;;13.50;10.75;;;;;26.03;41.78;100989.34;4907680;28;45355;-58
2022/05/19 01:56:52;;;;;;;;;11.25;11.25;;;;;26.06;41.56;100982.88;4958353;28;47240;-58
2022/05/19 01:59:26;;;;;;;;;15.00;13.00;;;;;26.05;41.45;100995.50;4943540;28;45320;-57
2022/05/19 02:02:10;;;;;;;;;13.00;11.00;;;;;25.96;41.22;100980.88;4961012;28;45319;-57
2022/05/19 02:04:51;;;;;;;;;10.50;10.25;;;;;26.02;41.49;100993.00;4960915;28;45481;-57
2022/05/19 02:07:19;;;;;;;;;10.25;10.25;;;;;26.03;41.42;100993.88;4960773;28;45403;-58
2022/05/19 02:09:58;;;;;;;;;10.00;10.00;;;;;26.00;41.63;100994.09;4960516;28;45403;-57
2022/05/19 02:12:24;;;;;;;;;12.50;10.75;;;;;26.01;42.12;100993.13;4959977;28;45152;-57
2022/05/19 02:14:57;;;;;;;;;12.75;12.75;;;;;25.96;41.45;100988.94;4947532;28;45389;-57
2022/05/19 02:17:25;;;;;;;;;11.25;10.75;;;;;25.98;41.80;100990.66;4943023;28;46138;-57
2022/05/19 02:19:57;;;;;;;;;14.25;14.00;;;;;25.98;41.60;100985.28;4960595;28;45232;-57
2022/05/19 02:22:28;;;;;;;;;12.00;11.75;;;;;25.95;42.12;100989.91;4943301;28;45263;-58
2022/05/19 02:24:57;;;;;;;;;10.75;10.75;;;;;25.94;42.08;100987.34;4960148;28;45472;-58
2022/05/19 02:27:44;;;;;;;;;12.50;11.25;;;;;25.92;41.76;100991.97;4960372;28;46198;-57
2022/05/19 02:30:15;;;;;;;;;11.25;11.00;;;;;25.92;42.39;100986.59;4960554;28;45238;-57
2022/05/19 02:32:40;;;;;;;;;12.25;12.25;;;;;25.90;42.45;100988.53;4960584;28;45315;-57
2022/05/19 02:35:08;;;;;;;;;12.00;11.00;;;;;25.88;41.93;100983.28;4960763;28;45348;-57
2022/05/19 02:37:33;;;;;;;;;10.75;10.75;;;;;25.88;42.36;100993.19;4960247;28;46971;-57
2022/05/19 02:39:59;;;;;;;;;11.50;10.25;;;;;25.86;42.60;100987.06;4960115;28;45304;-57
2022/05/19 02:42:25;;;;;;;;;12.75;12.75;;;;;25.85;41.88;100993.41;4960460;28;45260;-57
2022/05/19 02:44:50;;;;;;;;;11.75;10.25;;;;;25.84;42.44;100997.94;4975592;28;45500;-58
2022/05/19 02:47:15;;;;;;;;;12.50;10.50;;;;;25.82;42.02;100999.88;4960172;28;45543;-58
2022/05/19 02:49:41;;;;;;;;;14.00;12.75;;;;;25.81;42.56;100990.13;4943113;28;45216;-58
2022/05/19 02:52:06;;;;;;;;;13.50;11.25;;;;;25.79;42.29;100992.91;4960568;28;45362;-57
2022/05/19 02:54:32;;;;;;;;;12.00;10.25;;;;;25.76;42.38;100994.94;4942833;28;45426;-57
2022/05/19 02:56:57;;;;;;;;;12.50;12.50;;;;;25.72;42.11;100983.59;4960056;28;46144;-57
2022/05/19 02:59:22;;;;;;;;;12.00;12.00;;;;;25.74;42.68;100994.22;4960442;28;45323;-58
2022/05/19 03:01:48;;;;;;;;;12.25;11.50;;;;;25.74;42.40;100991.53;4960327;28;45509;-58
2022/05/19 03:04:13;;;;;;;;;15.00;13.50;;;;;25.73;42.71;100997.88;4961215;28;45618;-58
2022/05/19 03:06:39;;;;;;;;;12.75;12.75;;;;;25.73;42.22;100997.88;4963361;28;46160;-57
2022/05/19 03:09:04;;;;;;;;;16.00;14.25;;;;;25.70;42.69;100992.72;4963430;28;45367;-57
2022/05/19 03:11:30;;;;;;;;;12.25;12.25;;;;;25.71;42.18;100994.44;4963567;28;45319;-57
2022/05/19 03:13:56;;;;;;;;;15.00;15.00;;;;;25.69;43.06;101005.31;4955252;28;45343;-57
2022/05/19 03:16:21;;;;;;;;;11.25;10.25;;;;;25.67;43.05;101003.72;4957401;28;46022;-57
2022/05/19 03:18:46;;;;;;;;;13.75;12.50;;;;;25.66;42.48;101000.19;4963509;28;45246;-57
2022/05/19 03:21:11;;;;;;;;;14.50;14.00;;;;;25.66;43.09;101002.00;4946017;28;45420;-57
2022/05/19 03:23:37;;;;;;;;;11.00;10.75;;;;;25.63;43.28;100990.50;4963522;28;45535;-57
2022/05/19 03:26:02;;;;;;;;;12.25;12.25;;;;;25.61;42.52;100984.38;4963071;28;46639;-57
2022/05/19 03:28:28;;;;;;;;;13.50;12.25;;;;;25.61;43.02;100992.44;4963412;28;45267;-57
2022/05/19 03:30:54;;;;;;;;;11.50;10.75;;;;;25.59;42.55;100994.38;4963331;28;45287;-57
2022/05/19 03:33:19;;;;;;;;;13.00;13.00;;;;;25.59;42.54;100991.69;4963409;28;45509;-57
2022/05/19 03:35:45;;;;;;;;;14.75;13.75;;;;;25.57;43.20;100993.66;4962848;28;46106;-57
2022/05/19 03:38:11;;;;;;;;;13.50;11.25;;;;;25.57;42.93;100996.34;4945954;28;45848;-57
2022/05/19 03:40:36;;;;;;;;;13.75;10.75;;;;;25.54;43.14;100993.00;4962847;28;45425;-57
2022/05/19 03:43:02;;;;;;;;;10.75;10.75;;;;;25.55;42.71;100986.66;4963142;28;45294;-57
2022/05/19 03:45:28;;;;;;;;;13.00;13.00;;;;;25.53;43.28;100992.13;4945403;28;45348;-57
2022/05/19 03:47:53;;;;;;;;;12.25;12.25;;;;;25.52;43.30;100987.75;4963214;28;45345;-57
2022/05/19 03:50:19;;;;;;;;;14.00;14.00;;;;;25.51;43.14;100993.22;4963052;28;45423;-57
2022/05/19 03:52:44;;;;;;;;;12.50;12.00;;;;;25.46;43.32;100997.13;4963063;28;45315;-57
2022/05/19 03:55:12;;;;;;;;;13.00;13.00;;;;;25.48;42.92;100994.31;4945023;28;45861;-57
2022/05/19 03:57:37;;;;;;;;;12.50;12.50;;;;;25.47;42.87;100997.97;4963001;28;45315;-57
2022/05/19 04:00:05;;;;;;;;;12.25;12.25;;;;;25.45;43.41;100991.84;4945447;28;45414;-57
2022/05/19 04:02:31;;;;;;;;;10.00;10.00;;;;;25.43;43.19;100994.66;4945506;28;45449;-57
2022/05/19 04:04:56;;;;;;;;;12.25;12.25;;;;;25.42;43.58;101001.00;4962458;28;45315;-57
2022/05/19 04:07:22;;;;;;;;;15.00;11.00;;;;;25.41;43.58;100999.28;4945328;28;45378;-57
2022/05/19 04:09:47;;;;;;;;;10.25;10.25;;;;;25.40;43.16;100992.19;4962452;28;45312;-57
2022/05/19 04:12:14;;;;;;;;;14.25;13.75;;;;;25.38;43.52;101004.88;4962830;28;45493;-57
2022/05/19 04:14:39;;;;;;;;;14.00;12.75;;;;;25.38;43.66;100995.97;4947906;28;47345;-57
2022/05/19 04:17:05;;;;;;;;;12.00;12.00;;;;;25.36;43.56;100996.06;4962425;28;45429;-57
2022/05/19 04:19:30;;;;;;;;;11.00;11.00;;;;;25.36;43.12;100997.84;4962578;28;45337;-57
2022/05/19 04:21:56;;;;;;;;;8.50;8.25;;;;;25.35;43.34;100994.31;4945144;28;45370;-57
2022/05/19 04:24:21;;;;;;;;;12.50;12.00;;;;;25.34;43.60;100992.59;4944791;28;46732;-57
2022/05/19 04:26:48;;;;;;;;;11.25;11.25;;;;;25.32;43.20;100994.56;4962258;28;45232;-57
2022/05/19 04:29:13;;;;;;;;;10.75;10.75;;;;;25.34;43.40;100991.75;4962453;28;45445;-57
2022/05/19 04:31:38;;;;;;;;;12.00;12.00;;;;;25.32;43.50;100994.56;4962515;28;45184;-57
2022/05/19 04:34:05;;;;;;;;;10.50;9.50;;;;;25.29;43.20;100992.91;4962106;28;45498;-57
2022/05/19 04:36:30;;;;;;;;;14.75;12.00;;;;;25.29;43.52;100998.31;4944850;28;45418;-57
2022/05/19 04:38:56;;;;;;;;;12.75;12.75;;;;;25.29;43.29;101000.16;4962008;28;45211;-57
2022/05/19 04:41:21;;;;;;;;;13.75;12.25;;;;;25.29;43.46;101000.16;4962351;28;45290;-57
2022/05/19 04:43:46;;;;;;;;;15.50;12.75;;;;;25.28;43.81;101001.09;4962030;28;46104;-57
2022/05/19 04:46:12;;;;;;;;;12.25;10.25;;;;;25.28;43.47;100995.72;4962048;28;45277;-57
2022/05/19 04:48:37;;;;;;;;;10.75;10.75;;;;;25.25;43.82;100993.28;4962209;28;45506;-57
2022/05/19 04:51:02;;;;;;;;;15.25;14.00;;;;;25.26;43.94;101006.59;4944726;28;45521;-57
2022/05/19 04:53:28;;;;;;;;;13.00;12.25;;;;;25.25;43.80;101006.72;4961955;28;45957;-57
2022/05/19 04:55:54;;;;;;;;;15.00;15.00;;;;;25.22;43.46;101006.94;4961376;28;45444;-57
2022/05/19 04:58:21;;;;;;;;;13.00;12.75;;;;;25.22;43.80;101005.13;4961834;28;45583;-57
2022/05/19 05:00:48;;;;;;;;;18.00;13.50;;;;;25.21;43.97;101016.84;4961702;28;45354;-57
2022/05/19 05:03:14;;;;;;;;;13.50;12.25;;;;;25.21;43.87;101010.63;4944394;28;47222;-57
2022/05/19 05:05:39;;;;;;;;;14.00;14.00;;;;;25.20;43.55;101020.50;4944143;28;45224;-52
2022/05/19 05:08:05;;;;;;;;;12.50;10.00;;;;;25.19;43.73;101024.13;4962023;28;45298;-53
2022/05/19 05:10:31;;;;;;;;;10.25;10.25;;;;;25.18;43.59;101025.09;4944016;28;45662;-52
2022/05/19 05:12:57;;;;;;;;;10.25;9.50;;;;;25.18;43.46;101043.94;4960741;28;45445;-52
2022/05/19 05:15:22;;;;;;;;;10.50;10.00;;;;;25.17;43.82;101087.94;4948576;28;45366;-54
2022/05/19 05:17:48;;;;;;;;;15.50;14.00;;;;;25.14;44.14;101129.34;4961519;28;47012;-55
2022/05/19 05:20:14;;;;;;;;;12.00;11.50;;;;;25.10;43.82;101082.13;4961551;28;45441;-53
2022/05/19 05:22:40;;;;;;;;;10.25;9.50;;;;;25.10;43.96;101057.91;4959929;28;47105;-50
2022/05/19 05:25:10;;;;;;;;;12.50;12.50;;;;;25.10;44.01;101108.16;4960982;28;45493;-56
2022/05/19 05:27:35;;;;;;;;;11.25;11.25;;;;;25.09;44.06;101106.44;4960566;28;45327;-53
2022/05/19 05:30:00;;;;;;;;;13.00;11.75;;;;;25.08;44.00;101096.63;4961415;28;45649;-61
2022/05/19 05:32:26;;;;;;;;;12.00;12.00;;;;;25.07;43.83;101090.41;4942133;28;46008;-53
2022/05/19 05:34:51;;;;;;;;;12.50;11.00;;;;;25.05;44.22;101095.03;4939224;28;45517;-53
2022/05/19 05:37:17;;;;;;;;;8.50;8.50;;;;;25.00;44.48;101083.72;4932321;28;45458;-53
2022/05/19 05:39:42;;;;;;;;;10.75;10.75;;;;;24.97;44.24;101081.28;4927712;28;45374;-49
2022/05/19 05:42:08;;;;;;;;;14.00;13.50;;;;;24.98;44.52;101097.28;4933540;28;45420;-53
2022/05/19 05:44:34;;;;;;;;;13.25;11.25;;;;;24.95;44.30;101108.22;4923942;28;45350;-55
2022/05/19 05:46:59;;;;;;;;;13.75;13.75;;;;;24.89;44.68;101106.00;4907400;28;45396;-52
2022/05/19 05:49:25;;;;;;;;;16.25;15.50;;;;;24.88;44.92;101106.97;4928810;28;48250;-50
2022/05/19 05:51:50;;;;;;;;;14.75;14.50;;;;;24.87;44.64;101107.03;4907111;28;46984;-46
2022/05/19 05:54:15;;;;;;;;;12.75;11.00;;;;;24.88;44.84;101098.03;4923220;28;45347;-44
2022/05/19 05:56:41;;;;;;;;;13.75;12.00;;;;;24.88;44.70;101115.03;4907536;28;45316;-47
2022/05/19 05:59:06;;;;;;;;;16.00;15.75;;;;;24.88;44.95;101104.28;4940124;28;45274;-43
2022/05/19 06:01:32;;;;;;;;;15.00;14.25;;;;;24.86;45.32;101105.34;4944124;28;45280;-45
2022/05/19 06:03:57;;;;;;;;;16.00;13.75;;;;;24.84;44.84;101102.75;4952323;28;45248;-43
2022/05/19 06:06:25;;;;;;;;;19.50;15.50;;;;;24.86;45.29;101090.06;4941134;28;45241;-43
2022/05/19 06:08:50;;;;;;;;;14.25;13.50;;;;;24.90;45.07;101096.94;4951726;28;45193;-47
2022/05/19 06:11:16;;;;;;;;;13.75;13.75;;;;;24.90;45.18;101094.25;4944642;28;46990;-46
2022/05/19 06:13:43;;;;;;;;;13.75;13.75;;;;;24.94;45.22;101097.59;4944710;28;45424;-43
2022/05/19 06:16:08;;;;;;;;;15.75;14.50;;;;;24.95;45.26;101092.09;4939126;28;45351;-45
2022/05/19 06:18:33;;;;;;;;;16.00;15.25;;;;;24.98;45.21;101099.97;4960347;28;45466;-46
2022/05/19 06:20:59;;;;;;;;;15.25;14.25;;;;;24.97;45.16;101098.25;4954809;28;45484;-46
2022/05/19 06:23:24;;;;;;;;;15.75;15.00;;;;;24.99;45.45;101096.31;4957702;28;45319;-46
2022/05/19 06:25:50;;;;;;;;;16.50;16.00;;;;;24.98;45.35;101102.66;4960274;28;45411;-43
2022/05/19 06:28:16;;;;;;;;;13.50;13.50;;;;;25.04;45.36;101108.56;4960397;28;45377;-47
2022/05/19 06:30:42;;;;;;;;;13.50;12.50;;;;;25.05;45.43;101103.09;4960117;28;45355;-50
2022/05/19 06:33:07;;;;;;;;;17.00;17.00;;;;;25.07;45.06;101097.59;4942810;28;45299;-47
2022/05/19 06:35:34;;;;;;;;;13.00;13.00;;;;;25.09;45.56;101090.28;4960318;28;45521;-43
2022/05/19 06:38:00;;;;;;;;;14.50;13.75;;;;;25.12;45.46;101099.00;4953704;28;45410;-51
2022/05/19 06:40:28;;;;;;;;;18.50;17.00;;;;;25.15;44.84;101096.09;4960378;28;45461;-53
2022/05/19 06:42:55;;;;;;;;;12.75;12.75;;;;;25.19;44.89;101101.28;4963513;28;45274;-51
2022/05/19 06:45:24;;;;;;;;;18.50;17.75;;;;;25.22;44.79;101098.34;4963627;28;45369;-53
2022/05/19 06:47:51;;;;;;;;;16.00;16.00;;;;;25.24;45.01;101099.97;4963062;28;45888;-52
2022/05/19 06:50:17;;;;;;;;;16.00;15.00;;;;;25.26;45.26;101100.72;4962045;28;47153;-51
2022/05/19 06:52:45;;;;;;;;;17.25;15.50;;;;;25.28;44.88;101106.88;4963641;28;45329;-53
2022/05/19 06:55:13;;;;;;;;;15.00;15.00;;;;;25.30;44.79;101112.97;4957651;28;45355;-53
2022/05/19 06:57:39;;;;;;;;;19.50;17.00;;;;;25.34;45.03;101120.84;4962141;28;45441;-51
2022/05/19 07:00:06;;;;;;;;;16.50;14.75;;;;;25.34;45.07;101107.41;4963340;28;45228;-52
2022/05/19 07:02:31;;;;;;;;;15.50;15.00;;;;;25.35;45.22;101106.44;4945836;28;45253;-53
2022/05/19 07:04:57;;;;;;;;;13.00;11.50;;;;;25.39;45.17;101107.97;4963273;28;45292;-52
2022/05/19 07:07:24;;;;;;;;;16.25;15.50;;;;;25.41;44.79;101112.25;4959913;28;45235;-51
2022/05/19 07:09:49;;;;;;;;;21.25;19.50;;;;;25.41;45.14;101114.94;4931744;28;46444;-50
2022/05/19 07:12:24;;;;;;;;;14.00;14.00;;;;;25.42;45.24;101105.03;4931586;28;45416;-52
2022/05/19 07:14:51;;;;;;;;;16.00;15.50;;;;;25.46;45.00;101118.16;4935823;28;45306;-51
2022/05/19 07:17:17;;;;;;;;;15.00;15.00;;;;;25.46;45.10;101115.47;4942737;28;45434;-52
2022/05/19 07:22:28;;;;;;;;;18.50;18.50;;;;;25.46;44.88;101118.16;4952748;28;45224;-50
2022/05/19 07:24:54;;;;;;;;;16.50;14.00;;;;;25.49;44.76;101117.09;4950937;28;45326;-52
2022/05/19 07:27:19;;;;;;;;;17.75;16.75;;;;;25.47;45.16;101113.63;4951300;28;45229;-51
2022/05/19 07:29:44;;;;;;;;;20.25;15.25;;;;;25.50;45.18;101120.63;4955096;28;48544;-50
2022/05/19 07:32:10;;;;;;;;;16.75;14.25;;;;;25.50;45.02;101116.13;4949514;28;45228;-51
2022/05/19 07:34:38;;;;;;;;;18.00;16.00;;;;;25.48;45.23;101115.34;4931546;28;45373;-49
2022/05/19 07:37:04;;;;;;;;;17.00;17.00;;;;;25.52;44.69;101110.63;4961406;28;45299;-53
2022/05/19 07:39:29;;;;;;;;;13.50;11.75;;;;;25.51;44.98;101111.59;4957869;28;46090;-53
2022/05/19 07:41:56;;;;;;;;;14.50;14.00;;;;;25.50;45.33;101113.44;4957677;28;45401;-50
2022/05/19 07:44:27;;;;;;;;;18.00;18.00;;;;;25.50;45.04;101131.38;4963412;28;45311;-51
2022/05/19 07:46:53;;;;;;;;;18.00;17.25;;;;;25.48;45.34;101128.81;4945075;28;45531;-56
2022/05/19 07:49:19;;;;;;;;;24.75;20.25;;;;;25.46;45.21;101123.53;4944805;28;46752;-51
2022/05/19 07:51:45;;;;;;;;;16.25;15.00;;;;;25.46;44.77;101136.16;4962204;28;45318;-51
2022/05/19 07:54:15;;;;;;;;;17.00;16.75;;;;;25.45;44.64;101134.41;4962502;28;45299;-51
2022/05/19 07:56:41;;;;;;;;;19.25;18.00;;;;;25.44;45.26;101140.75;4959107;28;45500;-49
2022/05/19 07:59:08;;;;;;;;;17.75;17.00;;;;;25.42;45.13;101142.69;4962310;28;46027;-50
2022/05/19 08:01:34;;;;;;;;;17.50;15.75;;;;;25.41;44.77;101141.84;4962500;28;45409;-51
2022/05/19 08:04:00;;;;;;;;;17.00;16.00;;;;;25.42;44.80;101151.63;4962551;28;45441;-51
2022/05/19 08:06:28;;;;;;;;;17.00;15.75;;;;;25.40;45.41;101152.72;4962330;28;45324;-51
2022/05/19 08:08:54;;;;;;;;;18.75;14.50;;;;;25.38;45.00;101150.13;4948644;28;45328;-48
2022/05/19 08:11:19;;;;;;;;;18.00;15.50;;;;;25.39;45.39;101146.47;4941582;28;45468;-51
2022/05/19 08:16:29;;;;;;;;;16.25;14.25;;;;;25.40;45.28;101150.88;4960042;28;45237;-52
2022/05/19 08:18:55;;;;;;;;;19.75;17.25;;;;;25.44;45.68;101157.75;4959707;28;45449;-53
2022/05/19 08:21:21;;;;;;;;;16.75;16.75;;;;;25.43;45.59;101149.78;4961104;28;45251;-53
2022/05/19 08:23:50;;;;;;;;;21.25;21.00;;;;;25.47;45.62;101148.59;4951391;28;45303;-52
2022/05/19 08:26:17;;;;;;;;;18.00;16.75;;;;;25.49;45.87;101165.50;4960925;28;45512;-53
2022/05/19 08:28:44;;;;;;;;;17.75;17.00;;;;;25.52;45.38;101173.38;4959531;28;46261;-51
2022/05/19 08:31:13;;;;;;;;;17.75;17.00;;;;;25.55;45.98;101167.75;4960915;28;45220;-52
2022/05/19 08:33:40;;;;;;;;;16.50;15.25;;;;;25.58;45.97;101174.75;4959653;28;45322;-47
2022/05/19 08:36:07;;;;;;;;;17.75;17.00;;;;;25.63;45.41;101159.13;4960855;28;45531;-53
2022/05/19 08:38:32;;;;;;;;;14.00;13.00;;;;;25.66;45.40;101169.69;4958934;28;46154;-52
2022/05/19 08:41:23;;;;;;;;;16.50;15.50;;;;;25.70;45.83;101173.00;4954617;28;45232;-52
2022/05/19 08:44:32;;;;;;;;;15.50;14.50;;;;;25.74;45.80;101178.06;4946089;28;45354;-52
2022/05/19 08:47:00;;;;;;;;;15.25;13.75;;;;;25.75;45.62;101185.19;4899079;29;45433;-51
2022/05/19 08:49:47;;;;;;;;;14.50;14.50;;;;;25.85;46.20;101211.41;4896020;29;45302;-48
2022/05/19 08:52:19;;;;;;;;;17.25;17.00;;;;;25.88;46.32;101211.22;4919373;28;45491;-55
2022/05/19 08:54:48;;;;;;;;;17.00;15.25;;;;;25.92;46.28;101220.78;4951277;28;45479;-51
2022/05/19 08:57:35;;;;;;;;;16.50;16.50;;;;;25.99;45.92;101218.50;4943077;28;45559;-54
2022/05/19 09:00:10;;;;;;;;;18.25;16.00;;;;;26.04;46.37;101227.13;4930968;28;46899;-52
2022/05/19 09:02:42;;;;;;;;;19.00;16.50;;;;;26.08;46.27;101242.13;4955053;28;45384;-51
2022/05/19 09:05:10;;;;;;;;;17.50;16.50;;;;;26.14;45.91;101238.13;4936662;28;45505;-52
2022/05/19 09:07:58;;;;;;;;;17.25;15.75;;;;;26.16;46.58;101245.09;4954167;28;45478;-52
2022/05/19 09:10:39;;;;;;;;;18.25;16.25;;;;;26.23;45.92;101245.53;4950057;28;47053;-53
2022/05/19 09:13:31;;;;;;;;;17.00;13.50;;;;;26.31;45.76;101243.13;4929894;28;45490;-52
2022/05/19 09:15:59;;;;;;;;;17.00;17.00;;;;;26.38;45.70;101246.25;4895608;28;45640;-52
2022/05/19 09:18:33;;;;;;;;;15.25;15.25;;;;;26.40;45.62;101249.69;4942336;28;45410;-52
2022/05/19 09:21:00;;;;;;;;;17.00;14.25;;;;;26.41;45.79;101251.41;4954098;28;45371;-53
2022/05/19 09:23:26;;;;;;;;;3.50;2.50;;;;;26.44;45.75;101265.53;4943880;28;45367;-52
2022/05/19 09:26:23;;;;;;;;;13.50;12.00;;;;;26.44;45.48;101272.75;4948169;28;45391;-52
2022/05/19 09:29:11;;;;;;;;;14.75;12.50;;;;;26.45;45.13;101279.84;4935957;28;45488;-51
2022/05/19 09:31:42;;;;;;;;;14.00;11.75;;;;;26.50;44.74;101277.66;4954377;28;45344;-50
2022/05/19 09:34:09;;;;;;;;;15.25;13.00;;;;;26.56;45.28;101293.38;4949273;28;45256;-50
2022/05/19 09:36:42;;;;;;;;;11.75;10.25;;;;;26.62;44.83;101308.25;4948446;28;45243;-50
2022/05/19 09:39:14;;;;;;;;;13.75;11.25;;;;;26.66;44.99;101309.75;4950960;28;45612;-50
2022/05/19 09:41:46;;;;;;;;;10.00;10.00;;;;;26.65;44.91;101301.78;4940824;28;46319;-50
2022/05/19 09:44:15;;;;;;;;;11.75;8.75;;;;;26.70;44.30;101321.16;4950863;28;45361;-49
2022/05/19 09:46:44;;;;;;;;;10.75;10.25;;;;;26.74;44.13;101325.38;4954653;28;45343;-51
2022/05/19 09:49:33;;;;;;;;;10.00;10.00;;;;;26.77;43.92;101342.19;4953071;28;45471;-51
2022/05/19 09:52:04;;;;;;;;;10.50;10.50;;;;;26.78;43.98;101340.38;4930473;28;46132;-51
2022/05/19 09:54:31;;;;;;;;;13.00;12.50;;;;;26.78;43.88;101334.97;4924080;28;45396;-52
2022/05/19 09:57:04;;;;;;;;;14.50;12.25;;;;;26.83;43.61;101338.19;4950727;28;45376;-52
2022/05/19 09:59:44;;;;;;;;;12.00;10.75;;;;;26.87;43.23;101363.09;4947925;28;45416;-51
2022/05/19 10:02:55;;;;;;;;;19.25;16.00;;;;;26.95;43.55;101367.91;4949088;28;45457;-51
2022/05/19 10:05:31;;;;;;;;;16.75;16.75;;;;;27.01;43.44;101375.56;4919312;28;45277;-53
2022/05/19 10:08:05;;;;;;;;;23.00;20.00;;;;;27.06;43.75;101376.06;4943510;28;45446;-50
2022/05/19 10:10:33;;;;;;;;;16.75;16.75;;;;;27.11;43.46;101367.63;4931028;28;45485;-49
2022/05/19 10:13:12;;;;;;;;;18.00;18.00;;;;;27.16;42.98;101374.41;4949176;28;46365;-49
2022/05/19 10:15:55;;;;;;;;;19.25;18.00;;;;;27.28;43.04;101377.16;4952470;28;45241;-51
2022/05/19 10:18:45;;;;;;;;;19.00;16.75;;;;;27.39;42.91;101382.59;4939137;28;45477;-51
2022/05/19 10:21:25;;;;;;;;;16.50;13.25;;;;;27.53;42.64;101397.78;4943953;28;45227;-52
2022/05/19 10:23:58;;;;;;;;;14.50;13.00;;;;;27.70;42.74;101407.31;4952375;28;45412;-53
2022/05/19 10:26:39;;;;;;;;;13.75;13.50;;;;;27.87;43.05;101414.09;4952992;28;45504;-51
2022/05/19 10:32:43;;;;;;;;;12.25;12.25;;;;;28.24;42.48;101413.09;4927051;28;45442;-51
2022/05/19 10:36:10;;;;;;;;;12.25;10.25;;;;;28.44;42.53;101416.91;4951152;28;45393;-49
2022/05/19 10:39:14;;;;;;;;;11.75;10.00;;;;;28.63;42.45;101416.28;4883225;28;45475;-50
2022/05/19 10:41:51;;;;;;;;;9.75;8.75;;;;;28.82;42.35;101424.69;4945608;28;45863;-49
2022/05/19 10:44:36;;;;;;;;;12.75;9.00;;;;;29.02;42.46;101422.19;4947952;28;45301;-50
2022/05/19 10:47:26;;;;;;;;;10.00;10.00;;;;;29.22;41.88;101411.56;4919330;28;47383;-51
2022/05/19 10:50:15;;;;;;;;;10.00;10.00;;;;;29.41;41.48;101417.19;4951972;28;45424;-51
2022/05/19 10:53:14;;;;;;;;;8.25;6.25;;;;;29.63;41.73;101413.50;4957028;28;45616;-53
2022/05/19 10:55:46;;;;;;;;;10.50;8.00;;;;;29.86;41.81;101410.69;4950412;28;45157;-49
2022/05/19 10:58:43;;;;;;;;;10.75;9.25;;;;;30.09;41.38;101422.28;4944461;28;45489;-52
2022/05/19 11:01:12;;;;;;;;;10.75;9.00;;;;;30.35;41.56;101424.56;4929568;28;45444;-50
2022/05/19 11:03:55;;;;;;;;;9.75;9.75;;;;;30.55;41.19;101427.41;4955293;28;45459;-51
2022/05/19 11:06:26;;;;;;;;;6.75;5.75;;;;;30.71;40.51;101422.31;4944818;28;45264;-53
2022/05/19 11:08:52;;;;;;;;;11.00;10.00;;;;;30.88;40.30;101422.66;4948919;28;46325;-53
2022/05/19 11:11:39;;;;;;;;;5.50;5.00;;;;;31.08;40.56;101416.34;4962868;28;45427;-53
2022/05/19 11:14:39;;;;;;;;;7.50;5.00;;;;;31.37;40.10;101410.06;4963193;28;45593;-51
2022/05/19 11:17:18;;;;;;;;;6.00;6.00;;;;;31.61;40.11;101406.09;4965255;28;45525;-53
2022/05/19 11:19:50;;;;;;;;;5.00;5.00;;;;;31.82;39.71;101407.78;4956126;28;46601;-54
2022/05/19 11:22:21;;;;;;;;;4.50;4.50;;;;;31.94;39.09;101401.19;4984125;28;45314;-53
2022/05/19 11:27:49;;;;;;;;;5.25;4.00;;;;;32.06;38.99;101416.34;4937452;28;45553;-52
2022/05/19 11:30:19;;;;;;;;;5.50;4.00;;;;;32.06;38.57;101412.75;4957048;28;46966;-53
2022/05/19 11:32:50;;;;;;;;;3.50;3.50;;;;;32.01;37.88;101402.34;4977595;28;45429;-52
2022/05/19 11:35:30;;;;;;;;;3.25;3.25;;;;;31.98;37.64;101399.88;4976588;28;45448;-51
2022/05/19 11:37:55;;;;;;;;;2.00;2.00;;;;;31.93;38.13;101402.19;4981147;28;45378;-53
2022/05/19 11:40:42;;;;;;;;;2.75;2.75;;;;;31.90;37.28;101400.63;4973086;28;45512;-50